Time;durP1;ratioP1;P1;durP2;ratioP2;P2;SDS_P1;SDS_P2;PMS_P1;PMS_P2;Temp;Humidity;BMP_temperature;BMP_pressure;BME280_temperature;BME280_humidity;BME280_pressure;Samples;Min_cycle;Max_cycle;Signal;HPM_P1;HPM_P2
2022/03/21 00:00:40;;;;;;;18.30;11.95;;;18.30;86.20;;;;;;5055958;27;95720;-62
2022/03/21 00:03:15;;;;;;;17.92;12.30;;;18.50;85.80;;;;;;5060613;27;95742;-63
2022/03/21 00:05:47;;;;;;;12.98;11.10;;;18.60;86.70;;;;;;5061539;27;95840;-63
2022/03/21 00:08:22;;;;;;;17.23;10.88;;;18.80;85.20;;;;;;5061129;27;96339;-63
2022/03/21 00:10:54;;;;;;;14.98;12.15;;;18.80;84.90;;;;;;5063373;27;95479;-60
2022/03/21 00:13:26;;;;;;;15.60;10.77;;;19.00;82.60;;;;;;5057431;27;96391;-65
2022/03/21 00:15:58;;;;;;;14.48;10.73;;;19.10;84.10;;;;;;5021186;27;95875;-64
2022/03/21 00:18:29;;;;;;;16.92;11.23;;;19.30;80.70;;;;;;5062834;27;98657;-63
2022/03/21 00:21:01;;;;;;;15.23;10.77;;;19.20;82.80;;;;;;5062299;27;95822;-62
2022/03/21 00:23:31;;;;;;;13.80;10.32;;;19.30;82.20;;;;;;5059958;27;95782;-61
2022/03/21 00:26:02;;;;;;;15.50;10.00;;;19.40;79.80;;;;;;5061374;27;98240;-63
2022/03/21 00:28:34;;;;;;;;;;;19.50;82.10;;;;;;5063222;27;96051;-63
2022/03/21 00:31:05;;;;;;;14.43;10.00;;;19.70;82.10;;;;;;5056334;27;95753;-66
2022/03/21 00:33:35;;;;;;;13.30;9.73;;;19.90;81.20;;;;;;5044344;27;95730;-67
2022/03/21 00:36:08;;;;;;;13.27;9.57;;;20.00;82.00;;;;;;5045578;27;95852;-63
2022/03/21 00:39:00;;;;;;;19.30;11.25;;;20.20;80.10;;;;;;5060362;27;96297;-64
2022/03/21 00:41:34;;;;;;;16.80;9.90;;;20.30;79.90;;;;;;5060776;27;96432;-65
2022/03/21 00:44:08;;;;;;;13.40;11.10;;;20.30;79.10;;;;;;5062501;27;95324;-62
2022/03/21 00:46:38;;;;;;;22.35;11.60;;;20.40;79.80;;;;;;5054142;27;97607;-62
2022/03/21 00:49:12;;;;;;;;;;;20.50;75.10;;;;;;5062748;27;96553;-63
2022/03/21 00:51:41;;;;;;;12.05;9.25;;;20.60;79.30;;;;;;5063917;27;95755;-66
2022/03/21 00:54:11;;;;;;;11.02;8.85;;;20.70;79.00;;;;;;5061109;27;96424;-64
2022/03/21 00:56:42;;;;;;;13.32;9.45;;;20.70;78.80;;;;;;5060948;27;95910;-64
2022/03/21 00:59:14;;;;;;;10.60;8.82;;;20.80;77.60;;;;;;5041706;27;97062;-66
2022/03/21 01:01:45;;;;;;;;;;;20.90;78.60;;;;;;5056252;27;96633;-64
2022/03/21 01:04:16;;;;;;;13.32;10.88;;;21.10;78.30;;;;;;5065045;27;95710;-64
2022/03/21 01:06:47;;;;;;;13.15;9.88;;;21.20;76.40;;;;;;5039924;27;95563;-63
2022/03/21 01:09:19;;;;;;;10.60;9.50;;;21.20;77.40;;;;;;5061880;27;96683;-63
2022/03/21 01:11:51;;;;;;;12.75;9.25;;;21.30;77.90;;;;;;5060116;27;96590;-62
2022/03/21 01:14:24;;;;;;;12.25;8.85;;;21.40;76.80;;;;;;5033750;27;95847;-62
2022/03/21 01:16:56;;;;;;;16.40;9.25;;;21.50;76.50;;;;;;5040382;27;96791;-63
2022/03/21 01:19:30;;;;;;;14.23;10.70;;;21.60;76.50;;;;;;5061987;27;96527;-63
2022/03/21 01:22:00;;;;;;;13.40;9.95;;;21.70;76.50;;;;;;5036570;27;95912;-63
2022/03/21 01:24:31;;;;;;;10.88;9.40;;;21.90;75.70;;;;;;5062556;27;95997;-64
2022/03/21 01:27:07;;;;;;;14.60;9.57;;;21.90;76.00;;;;;;5062908;27;95821;-62
2022/03/21 01:29:38;;;;;;;13.07;9.40;;;21.90;76.70;;;;;;5057205;27;96092;-64
2022/03/21 01:32:10;;;;;;;11.48;8.98;;;22.10;74.10;;;;;;5055175;27;96563;-65
2022/03/21 01:34:40;;;;;;;14.25;9.98;;;22.00;75.70;;;;;;5069222;27;95345;-61
2022/03/21 01:37:10;;;;;;;16.38;8.48;;;22.00;75.80;;;;;;5066550;27;95782;-64
2022/03/21 01:39:41;;;;;;;8.80;8.00;;;22.00;76.00;;;;;;5063630;27;95830;-64
2022/03/21 01:42:14;;;;;;;11.10;8.98;;;22.10;72.00;;;;;;5057293;27;96836;-64
2022/03/21 01:44:45;;;;;;;11.40;7.90;;;22.10;76.30;;;;;;5059710;27;95900;-62
2022/03/21 01:47:17;;;;;;;9.27;8.38;;;22.10;76.50;;;;;;5056610;27;98541;-62
2022/03/21 01:49:50;;;;;;;9.60;7.80;;;22.20;72.30;;;;;;5071085;27;96412;-62
2022/03/21 01:52:21;;;;;;;11.60;8.40;;;22.20;76.40;;;;;;5069448;27;95852;-63
2022/03/21 01:57:40;;;;;;;13.25;7.90;;;22.20;76.20;;;;;;5069342;27;95362;-60
2022/03/21 02:00:13;;;;;;;10.35;8.00;;;22.30;76.20;;;;;;5069558;27;95714;-61
2022/03/21 02:02:46;;;;;;;7.88;7.07;;;22.40;76.40;;;;;;5066528;27;95935;-62
2022/03/21 02:05:18;;;;;;;7.88;7.18;;;22.50;76.20;;;;;;5068276;27;95999;-63
2022/03/21 02:07:50;;;;;;;7.80;6.90;;;22.60;76.00;;;;;;5067756;27;97884;-55
2022/03/21 02:10:22;;;;;;;8.45;7.60;;;22.80;75.80;;;;;;5068005;27;95905;-57
2022/03/21 02:12:54;;;;;;;7.22;6.43;;;23.00;75.60;;;;;;5069961;27;95936;-60
2022/03/21 02:15:26;;;;;;;7.28;6.57;;;23.10;75.40;;;;;;5046438;27;95906;-61
2022/03/21 02:18:02;;;;;;;7.47;6.18;;;23.20;75.30;;;;;;5065005;27;96350;-60
2022/03/21 02:20:36;;;;;;;7.90;7.10;;;23.30;75.30;;;;;;5060427;27;96205;-61
2022/03/21 02:23:44;;;;;;;8.27;7.20;;;23.40;74.60;;;;;;5061664;27;96891;-62
2022/03/21 02:26:16;;;;;;;9.35;7.95;;;23.40;74.40;;;;;;5061179;27;95522;-61
2022/03/21 02:28:49;;;;;;;7.90;7.10;;;23.30;74.40;;;;;;5062201;27;95949;-61
2022/03/21 02:31:20;;;;;;;9.20;7.57;;;23.30;74.40;;;;;;5054080;27;96602;-62
2022/03/21 02:33:52;;;;;;;7.88;6.93;;;23.30;74.50;;;;;;5060511;27;96060;-62
2022/03/21 02:36:23;;;;;;;9.23;7.18;;;23.30;74.50;;;;;;5057878;27;95718;-62
2022/03/21 02:38:56;;;;;;;10.07;7.03;;;23.20;74.50;;;;;;5040804;27;95636;-64
2022/03/21 02:41:27;;;;;;;9.27;6.88;;;23.30;74.50;;;;;;5060282;27;96497;-60
2022/03/21 02:44:00;;;;;;;8.48;7.68;;;23.30;74.50;;;;;;5059222;27;95926;-61
2022/03/21 02:46:30;;;;;;;7.72;6.93;;;23.30;74.50;;;;;;5031709;27;97693;-65
2022/03/21 02:49:02;;;;;;;7.25;6.55;;;23.30;74.40;;;;;;5062091;27;96202;-62
2022/03/21 02:51:37;;;;;;;8.00;6.72;;;23.30;74.40;;;;;;5059466;27;96515;-62
2022/03/21 02:54:09;;;;;;;8.10;6.75;;;23.30;74.40;;;;;;5059815;27;95943;-62
2022/03/21 02:56:40;;;;;;;7.85;6.65;;;23.40;74.30;;;;;;5060250;27;95273;-61
2022/03/21 02:59:11;;;;;;;8.80;7.03;;;23.40;73.70;;;;;;5062457;27;95792;-62
2022/03/21 03:01:43;;;;;;;9.63;6.07;;;23.40;72.30;;;;;;5053298;27;96011;-62
2022/03/21 03:04:14;;;;;;;7.40;6.68;;;23.40;72.60;;;;;;5061502;27;95402;-60
2022/03/21 03:06:45;;;;;;;7.00;6.30;;;23.40;72.80;;;;;;5061043;27;95998;-60
2022/03/21 03:09:16;;;;;;;8.68;7.15;;;23.40;72.30;;;;;;5060762;27;96536;-60
2022/03/21 03:11:48;;;;;;;7.85;5.45;;;23.40;71.70;;;;;;5061134;27;95996;-59
2022/03/21 03:14:19;;;;;;;8.00;6.40;;;23.40;71.40;;;;;;5053029;27;96488;-62
2022/03/21 03:16:51;;;;;;;5.85;5.35;;;23.40;71.60;;;;;;5046819;27;98100;-60
2022/03/21 03:19:21;;;;;;;;;;;23.50;71.90;;;;;;5066687;27;95801;-60
2022/03/21 03:21:53;;;;;;;6.33;5.67;;;23.70;71.90;;;;;;5070454;27;97165;-61
2022/03/21 03:24:28;;;;;;;5.82;5.32;;;23.90;71.90;;;;;;5068368;27;96000;-61
2022/03/21 03:26:59;;;;;;;5.85;5.30;;;24.10;71.90;;;;;;5067298;27;95827;-58
2022/03/21 03:29:32;;;;;;;5.40;4.90;;;24.20;71.90;;;;;;5066773;27;95913;-60
2022/03/21 03:32:03;;;;;;;9.02;5.80;;;24.30;71.90;;;;;;5037519;27;96479;-59
2022/03/21 03:34:35;;;;;;;7.97;6.38;;;24.40;70.90;;;;;;5065246;27;96177;-56
2022/03/21 03:37:05;;;;;;;6.82;6.18;;;24.40;71.20;;;;;;5055543;27;96357;-56
2022/03/21 03:39:36;;;;;;;6.23;5.43;;;24.40;68.00;;;;;;5067875;27;96051;-59
2022/03/21 03:42:08;;;;;;;9.00;5.75;;;24.20;65.80;;;;;;5049090;27;96184;-60
2022/03/21 03:44:39;;;;;;;7.13;6.18;;;24.10;65.00;;;;;;5059506;27;96857;-60
2022/03/21 03:47:10;;;;;;;7.07;5.87;;;24.10;65.00;;;;;;5048626;27;95835;-58
2022/03/21 03:49:41;;;;;;;6.68;5.72;;;24.00;64.60;;;;;;5057207;27;97229;-59
2022/03/21 03:52:12;;;;;;;7.65;6.18;;;23.90;65.30;;;;;;5063009;27;95978;-59
2022/03/21 03:54:43;;;;;;;10.65;6.32;;;23.90;64.70;;;;;;5066353;27;96014;-60
2022/03/21 03:57:14;;;;;;;7.65;6.85;;;23.90;64.10;;;;;;5063415;27;95611;-59
2022/03/21 03:59:45;;;;;;;7.38;6.68;;;23.90;63.80;;;;;;5060492;27;95941;-58
2022/03/21 04:02:16;;;;;;;6.85;5.72;;;23.90;63.70;;;;;;5057576;27;98863;-59
2022/03/21 04:04:48;;;;;;;6.93;5.95;;;23.90;63.60;;;;;;5062237;27;96003;-59
2022/03/21 04:07:19;;;;;;;6.75;6.07;;;23.80;62.40;;;;;;5061633;27;95341;-59
2022/03/21 04:09:50;;;;;;;6.78;6.07;;;23.80;62.00;;;;;;5065117;27;95970;-60
2022/03/21 04:12:21;;;;;;;7.72;6.93;;;23.80;62.00;;;;;;5056626;27;95838;-60
2022/03/21 04:14:52;;;;;;;;;;;23.80;61.90;;;;;;5045462;27;95959;-62
2022/03/21 04:17:23;;;;;;;8.55;6.18;;;23.80;61.50;;;;;;5050021;27;95824;-60
2022/03/21 04:19:55;;;;;;;8.02;6.97;;;23.80;61.30;;;;;;5057643;27;95996;-59
2022/03/21 04:22:25;;;;;;;;;;;23.80;61.40;;;;;;5062391;27;95842;-60
2022/03/21 04:24:58;;;;;;;7.28;6.57;;;23.80;61.30;;;;;;5057960;27;95672;-61
2022/03/21 04:27:34;;;;;;;7.32;6.40;;;23.90;61.20;;;;;;5061730;27;96614;-62
2022/03/21 04:30:05;;;;;;;;;;;23.90;61.40;;;;;;5053286;27;97853;-63
2022/03/21 04:32:35;;;;;;;7.88;6.35;;;24.00;61.80;;;;;;5062672;27;95799;-58
2022/03/21 04:35:07;;;;;;;6.57;5.97;;;24.10;61.80;;;;;;5052200;27;96037;-60
2022/03/21 04:37:39;;;;;;;6.55;5.53;;;24.20;61.70;;;;;;5059194;27;95507;-59
2022/03/21 04:40:11;;;;;;;7.00;5.82;;;24.40;62.70;;;;;;5061979;27;95675;-60
2022/03/21 04:42:43;;;;;;;7.07;5.70;;;24.60;62.10;;;;;;5039588;27;98041;-59
2022/03/21 04:45:14;;;;;;;6.40;5.63;;;24.70;62.00;;;;;;5060664;27;96639;-61
2022/03/21 04:47:46;;;;;;;6.10;5.13;;;24.80;62.10;;;;;;5022090;27;95285;-61
2022/03/21 04:50:17;;;;;;;7.10;5.32;;;24.90;62.00;;;;;;5061543;27;95850;-61
2022/03/21 04:52:48;;;;;;;;;;;25.00;61.90;;;;;;5063679;27;96594;-60
2022/03/21 04:55:20;;;;;;;7.88;5.25;;;25.00;61.70;;;;;;5045097;27;96031;-62
2022/03/21 04:57:51;;;;;;;5.70;5.10;;;25.20;61.60;;;;;;5063710;27;96004;-60
2022/03/21 05:00:23;;;;;;;6.03;5.43;;;25.30;61.50;;;;;;5055217;27;97978;-60
2022/03/21 05:02:55;;;;;;;5.88;5.28;;;25.40;61.00;;;;;;5063540;27;96056;-60
2022/03/21 05:05:26;;;;;;;5.80;4.70;;;25.40;59.50;;;;;;5063110;27;95993;-60
2022/03/21 05:08:02;;;;;;;5.97;5.38;;;25.20;57.80;;;;;;5039310;27;95668;-59
2022/03/21 05:10:35;;;;;;;6.43;5.28;;;25.00;57.30;;;;;;5061123;27;96313;-60
2022/03/21 05:13:09;;;;;;;6.20;5.38;;;25.00;57.00;;;;;;5059978;27;97327;-60
2022/03/21 05:15:40;;;;;;;5.57;5.00;;;24.90;57.40;;;;;;5041025;27;95914;-61
2022/03/21 05:18:12;;;;;;;5.75;4.63;;;25.00;56.50;;;;;;5061050;27;95809;-59
2022/03/21 05:20:44;;;;;;;7.57;5.00;;;24.90;55.30;;;;;;5063768;27;95818;-62
2022/03/21 05:31:43;;;;;;;5.18;4.60;;;25.00;54.90;;;;;;5054880;27;96464;-59
2022/03/21 05:37:06;;;;;;;5.68;4.68;;;24.90;54.00;;;;;;5046228;27;95955;-60
2022/03/21 05:40:31;;;;;;;4.72;4.32;;;24.80;53.80;;;;;;5062341;27;98516;-58
2022/03/21 05:42:28;;;;;;;8.10;5.03;;;24.80;53.70;;;;;;5062252;27;95853;-59
2022/03/21 05:45:00;;;;;;;5.32;4.65;;;24.80;53.50;;;;;;5061570;27;96545;-60
2022/03/21 05:48:50;;;;;;;4.30;3.92;;;24.70;53.40;;;;;;5061114;27;96090;-59
2022/03/21 05:50:22;;;;;;;5.40;4.90;;;24.70;53.40;;;;;;5062015;27;96336;-59
2022/03/21 05:52:53;;;;;;;5.00;4.50;;;24.70;53.40;;;;;;5062084;27;96532;-59
2022/03/21 05:55:24;;;;;;;5.03;4.50;;;24.70;53.30;;;;;;5060885;27;95964;-60
2022/03/21 05:57:54;;;;;;;5.68;4.30;;;24.60;53.10;;;;;;5062467;27;95924;-59
2022/03/21 06:00:28;;;;;;;4.93;4.38;;;24.60;53.10;;;;;;5055317;27;95876;-58
2022/03/21 06:03:00;;;;;;;5.22;4.38;;;24.60;53.10;;;;;;5061693;27;95789;-60
2022/03/21 06:05:31;;;;;;;5.10;4.65;;;24.60;52.90;;;;;;5062367;27;96477;-58
2022/03/21 06:08:02;;;;;;;5.43;4.43;;;24.50;53.30;;;;;;5061479;27;96472;-59
2022/03/21 06:10:36;;;;;;;7.38;4.78;;;24.60;53.80;;;;;;5040140;27;95877;-59
2022/03/21 06:13:08;;;;;;;5.63;4.28;;;24.70;53.60;;;;;;5058692;27;97799;-60
2022/03/21 06:15:40;;;;;;;4.85;4.28;;;24.70;53.30;;;;;;5034210;27;96567;-60
2022/03/21 06:18:12;;;;;;;5.00;4.50;;;24.70;52.70;;;;;;5041586;27;96578;-60
2022/03/21 06:20:44;;;;;;;5.30;4.25;;;24.60;52.60;;;;;;5041033;27;95754;-60
2022/03/21 06:23:15;;;;;;;4.32;3.85;;;24.60;52.50;;;;;;5042621;27;95685;-60
2022/03/21 06:25:47;;;;;;;4.40;4.00;;;24.50;52.30;;;;;;5040963;27;97024;-60
2022/03/21 06:28:18;;;;;;;5.07;4.50;;;24.50;52.30;;;;;;5041196;27;96441;-61
2022/03/21 06:30:53;;;;;;;4.50;4.10;;;24.50;52.10;;;;;;5035102;27;95903;-60
2022/03/21 06:33:26;;;;;;;4.82;4.30;;;24.40;52.00;;;;;;5061814;27;97900;-60
2022/03/21 06:36:02;;;;;;;5.93;3.97;;;24.40;52.00;;;;;;5061839;27;95874;-61
2022/03/21 06:38:33;;;;;;;4.43;4.00;;;24.40;51.80;;;;;;5062283;27;96000;-60
2022/03/21 06:41:05;;;;;;;4.28;3.95;;;24.40;51.90;;;;;;5062432;27;96085;-60
2022/03/21 06:43:36;;;;;;;4.75;4.35;;;24.30;51.70;;;;;;5062938;27;97709;-60
2022/03/21 06:46:08;;;;;;;4.47;4.07;;;24.30;51.60;;;;;;5043217;27;96049;-58
2022/03/21 06:48:39;;;;;;;4.57;4.10;;;24.30;51.50;;;;;;5039770;27;95638;-62
2022/03/21 06:51:11;;;;;;;4.40;3.97;;;24.30;51.50;;;;;;5040064;27;96036;-61
2022/03/21 06:53:43;;;;;;;4.38;3.97;;;24.20;51.60;;;;;;5023860;27;96084;-61
2022/03/21 06:56:14;;;;;;;5.65;4.13;;;24.20;51.20;;;;;;5041966;27;97464;-61
2022/03/21 06:58:46;;;;;;;5.47;4.43;;;24.20;51.30;;;;;;5038876;27;95923;-60
2022/03/21 07:01:20;;;;;;;4.90;3.92;;;24.10;51.40;;;;;;5029739;27;95806;-61
2022/03/21 07:03:51;;;;;;;4.90;3.70;;;24.20;52.00;;;;;;5020509;27;95806;-59
2022/03/21 07:06:22;;;;;;;4.80;4.20;;;24.20;47.40;;;;;;5036861;27;96013;-60
2022/03/21 07:08:53;;;;;;;5.75;3.83;;;24.30;51.80;;;;;;5038589;27;96128;-59
2022/03/21 07:11:25;;;;;;;5.25;4.10;;;24.30;51.70;;;;;;5037771;27;95729;-61
2022/03/21 07:13:57;;;;;;;4.95;3.63;;;24.40;51.60;;;;;;5017858;27;97260;-61
2022/03/21 07:16:28;;;;;;;4.97;3.90;;;24.30;51.30;;;;;;5028828;27;95920;-59
2022/03/21 07:18:59;;;;;;;4.07;3.70;;;24.40;51.10;;;;;;5057698;27;96560;-59
2022/03/21 07:21:29;;;;;;;4.43;3.75;;;24.30;50.90;;;;;;5060777;27;96284;-59
2022/03/21 07:23:59;;;;;;;5.77;4.30;;;24.30;50.90;;;;;;5061914;27;96367;-61
2022/03/21 07:26:31;;;;;;;;;;;24.40;51.00;;;;;;5059940;27;96447;-60
2022/03/21 07:29:02;;;;;;;;;;;24.40;51.10;;;;;;5063164;27;95738;-60
2022/03/21 07:31:35;;;;;;;5.05;3.60;;;24.30;50.90;;;;;;5042668;27;95701;-61
2022/03/21 07:34:07;;;;;;;4.00;3.35;;;24.30;51.70;;;;;;5039057;27;95723;-61
2022/03/21 07:36:39;;;;;;;4.30;3.75;;;24.40;50.90;;;;;;5035448;27;96538;-60
2022/03/21 07:39:13;;;;;;;3.50;3.20;;;24.40;50.70;;;;;;5035591;27;96890;-60
2022/03/21 07:41:46;;;;;;;4.53;3.80;;;24.30;50.10;;;;;;5035225;27;95302;-57
2022/03/21 07:47:17;;;;;;;4.20;3.80;;;24.10;50.30;;;;;;5034762;27;95321;-60
2022/03/21 07:47:23;;;;;;;4.25;3.70;;;24.10;50.30;;;;;;5043169;27;95873;-57
2022/03/21 07:49:55;;;;;;;4.88;3.72;;;24.00;50.10;;;;;;5056003;27;97312;-57
2022/03/21 07:52:27;;;;;;;5.07;3.95;;;23.90;50.20;;;;;;5055802;27;95917;-61
2022/03/21 07:54:59;;;;;;;4.40;3.83;;;23.80;50.50;;;;;;5055490;27;96018;-61
2022/03/21 07:57:31;;;;;;;4.97;4.03;;;23.70;50.80;;;;;;5034609;27;95932;-60
2022/03/21 08:00:03;;;;;;;4.10;3.67;;;23.80;51.50;;;;;;5055314;27;98261;-61
2022/03/21 08:02:42;;;;;;;9.27;4.15;;;23.70;51.80;;;;;;5058656;27;95795;-61
2022/03/21 08:05:14;;;;;;;4.45;3.92;;;23.80;52.00;;;;;;5061174;27;95929;-61
2022/03/21 08:07:48;;;;;;;5.45;4.03;;;23.70;52.30;;;;;;5048242;27;96100;-60
2022/03/21 08:10:22;;;;;;;5.05;3.95;;;23.70;52.40;;;;;;5055227;27;95827;-60
2022/03/21 08:12:55;;;;;;;5.97;4.07;;;23.60;52.80;;;;;;5042820;27;95846;-59
2022/03/21 08:15:27;;;;;;;4.03;3.50;;;23.60;53.10;;;;;;5038472;27;95791;-61
2022/03/21 08:18:03;;;;;;;4.47;4.07;;;23.60;53.40;;;;;;5050404;27;97329;-60
2022/03/21 08:20:34;;;;;;;4.63;3.33;;;23.60;53.90;;;;;;5057654;27;95831;-60
2022/03/21 08:23:07;;;;;;;5.30;3.53;;;23.60;55.10;;;;;;5055279;27;95917;-61
2022/03/21 08:25:48;;;;;;;4.80;3.78;;;23.70;56.10;;;;;;5061999;27;95930;-61
2022/03/21 08:28:20;;;;;;;;;;;23.70;56.90;;;;;;5036655;27;95848;-61
2022/03/21 08:30:51;;;;;;;4.32;3.80;;;23.70;58.00;;;;;;5034627;27;95861;-61
2022/03/21 08:33:24;;;;;;;4.32;3.92;;;23.70;58.40;;;;;;5055117;27;96120;-62
2022/03/21 08:35:55;;;;;;;4.32;3.92;;;23.70;59.80;;;;;;5064709;27;95904;-61
2022/03/21 08:38:30;;;;;;;4.78;3.38;;;23.70;59.90;;;;;;5061593;27;96775;-61
2022/03/21 08:41:02;;;;;;;4.15;3.90;;;23.80;60.40;;;;;;5056746;27;95883;-59
2022/03/21 08:43:33;;;;;;;3.95;3.65;;;23.80;61.10;;;;;;5060218;27;96001;-60
2022/03/21 08:46:06;;;;;;;3.75;3.45;;;23.70;61.60;;;;;;5035011;27;96190;-63
2022/03/21 08:51:50;;;;;;;4.55;4.22;;;23.80;62.30;;;;;;5049711;27;95830;-60
2022/03/21 08:54:21;;;;;;;4.93;3.97;;;23.70;62.00;;;;;;5062557;27;96031;-59
2022/03/21 08:56:52;;;;;;;5.20;4.18;;;23.70;62.40;;;;;;5059694;27;95940;-61
2022/03/21 08:59:24;;;;;;;5.55;4.28;;;23.70;65.40;;;;;;5061622;27;95857;-62
2022/03/21 09:01:56;;;;;;;10.18;5.28;;;23.30;66.50;;;;;;5054689;27;98235;-62
2022/03/21 09:04:27;;;;;;;11.80;5.15;;;23.10;67.80;;;;;;5062720;27;96197;-63
2022/03/21 09:07:03;;;;;;;13.48;5.10;;;22.80;69.20;;;;;;5061365;27;95674;-63
2022/03/21 09:09:35;;;;;;;11.40;5.10;;;22.90;69.70;;;;;;5054726;27;96689;-62
2022/03/21 09:12:07;;;;;;;6.10;4.93;;;22.80;69.80;;;;;;5059149;27;96280;-62
2022/03/21 09:14:39;;;;;;;7.63;5.20;;;22.80;69.70;;;;;;5050172;27;96202;-63
2022/03/21 09:17:12;;;;;;;11.23;5.05;;;22.70;69.80;;;;;;5045526;27;95901;-63
2022/03/21 09:19:45;;;;;;;7.93;4.85;;;22.50;70.30;;;;;;5058863;27;96032;-61
2022/03/21 09:22:15;;;;;;;;;;;22.50;70.80;;;;;;5040723;27;96240;-63
2022/03/21 09:24:45;;;;;;;12.48;5.78;;;22.50;70.60;;;;;;5055344;27;96427;-61
2022/03/21 09:27:17;;;;;;;8.60;5.03;;;22.30;71.70;;;;;;5057135;27;95770;-63
2022/03/21 09:29:47;;;;;;;10.80;5.05;;;22.10;72.70;;;;;;5054700;27;95886;-62
2022/03/21 09:32:18;;;;;;;12.57;5.80;;;22.10;72.40;;;;;;5047139;27;95697;-63
2022/03/21 09:34:49;;;;;;;11.50;5.70;;;22.00;69.10;;;;;;5058950;27;95725;-63
2022/03/21 09:37:19;;;;;;;10.57;5.75;;;21.90;73.50;;;;;;5057031;27;96662;-61
2022/03/21 09:39:50;;;;;;;11.00;5.90;;;21.90;73.20;;;;;;5056652;27;95799;-61
2022/03/21 09:42:21;;;;;;;11.57;5.63;;;22.00;72.80;;;;;;5053702;27;95787;-63
2022/03/21 09:44:55;;;;;;;12.57;6.43;;;22.00;72.90;;;;;;5055041;27;96093;-61
2022/03/21 09:50:15;;;;;;;15.05;6.80;;;21.90;73.20;;;;;;5064715;27;95899;-63
2022/03/21 09:52:46;;;;;;;10.25;5.80;;;21.70;73.90;;;;;;5066821;27;95855;-63
2022/03/21 09:55:17;;;;;;;;;;;21.80;73.30;;;;;;5065740;27;96236;-68
2022/03/21 09:57:47;;;;;;;12.43;6.27;;;21.80;73.80;;;;;;5067816;27;95808;-65
2022/03/21 10:00:19;;;;;;;12.05;5.97;;;21.70;74.00;;;;;;5057140;27;96680;-67
2022/03/21 10:02:49;;;;;;;17.88;7.20;;;21.50;74.90;;;;;;5059045;27;95822;-64
2022/03/21 10:05:49;;;;;;;10.17;5.63;;;21.60;74.80;;;;;;5057490;27;96333;-65
2022/03/21 10:08:27;;;;;;;10.47;7.37;;;21.60;74.60;;;;;;5039047;27;96169;-64
2022/03/21 10:11:04;;;;;;;12.48;7.07;;;21.40;75.30;;;;;;5041280;27;97347;-64
2022/03/21 10:13:40;;;;;;;10.80;6.43;;;21.40;76.20;;;;;;5033968;27;95290;-68
2022/03/21 10:16:18;;;;;;;15.52;7.60;;;21.40;75.70;;;;;;5040388;27;96375;-62
2022/03/21 10:18:55;;;;;;;12.93;7.93;;;21.40;75.40;;;;;;5062307;27;96153;-67
2022/03/21 10:21:32;;;;;;;12.90;7.72;;;21.20;76.30;;;;;;5061022;27;95965;-65
2022/03/21 10:24:08;;;;;;;16.35;9.38;;;21.00;76.90;;;;;;5062315;27;95842;-67
2022/03/21 10:26:45;;;;;;;10.93;8.27;;;20.90;77.30;;;;;;5037557;27;96567;-68
2022/03/21 10:29:19;;;;;;;14.10;9.20;;;21.00;77.00;;;;;;5060079;27;95967;-68
2022/03/21 10:31:53;;;;;;;14.27;9.35;;;21.20;76.30;;;;;;5053578;27;95844;-67
2022/03/21 10:34:34;;;;;;;13.63;10.02;;;21.00;76.60;;;;;;5056314;27;96902;-68
2022/03/21 10:37:15;;;;;;;18.93;11.17;;;20.90;77.20;;;;;;5055500;27;96018;-64
2022/03/21 10:39:57;;;;;;;14.30;9.10;;;20.70;78.10;;;;;;5059845;27;95858;-69
2022/03/21 10:42:28;;;;;;;13.93;10.32;;;20.90;77.50;;;;;;5063234;27;98177;-64
2022/03/21 10:45:02;;;;;;;14.98;10.02;;;21.10;77.00;;;;;;5062969;27;95964;-70
2022/03/21 10:47:47;;;;;;;16.73;11.80;;;21.00;77.30;;;;;;5039691;27;95383;-68
2022/03/21 10:50:56;;;;;;;17.58;12.50;;;21.00;77.20;;;;;;5064368;27;95176;-71
2022/03/21 10:53:38;;;;;;;16.92;11.05;;;20.90;77.60;;;;;;5060526;27;96086;-70
2022/03/21 10:56:10;;;;;;;15.82;11.32;;;21.10;77.00;;;;;;5061980;27;95873;-70
2022/03/21 10:58:45;;;;;;;19.65;13.40;;;21.10;77.00;;;;;;5062262;27;95873;-69
2022/03/21 11:01:26;;;;;;;22.42;16.77;;;21.00;77.00;;;;;;5056458;27;96310;-65
2022/03/21 11:04:02;;;;;;;20.10;15.05;;;20.60;78.50;;;;;;5041104;27;96370;-66
2022/03/21 11:06:33;;;;;;;27.75;19.55;;;20.70;78.40;;;;;;5041788;27;97919;-67
2022/03/21 11:09:04;;;;;;;28.80;18.73;;;20.60;77.90;;;;;;5060122;27;95876;-67
2022/03/21 11:11:35;;;;;;;22.77;17.23;;;20.50;79.20;;;;;;5041623;27;96076;-67
2022/03/21 11:14:06;;;;;;;25.00;17.85;;;20.40;79.10;;;;;;5049931;27;95904;-66
2022/03/21 11:16:38;;;;;;;23.02;18.02;;;20.60;78.70;;;;;;5040197;27;97950;-67
2022/03/21 11:19:10;;;;;;;23.67;18.25;;;20.60;78.40;;;;;;5055415;27;95769;-67
2022/03/21 11:21:42;;;;;;;24.85;19.35;;;20.70;78.10;;;;;;5059976;27;96508;-66
2022/03/21 11:24:15;;;;;;;30.67;20.92;;;20.70;75.50;;;;;;5039620;27;96409;-66
2022/03/21 11:27:13;;;;;;;29.25;18.95;;;20.40;79.20;;;;;;5059797;27;95819;-67
2022/03/21 11:30:04;;;;;;;24.08;18.95;;;20.40;79.10;;;;;;5062051;27;95776;-66
2022/03/21 11:32:57;;;;;;;24.95;19.98;;;20.40;79.40;;;;;;5058927;27;95517;-65
2022/03/21 11:35:32;;;;;;;24.83;18.75;;;20.40;79.30;;;;;;5053700;27;95880;-68
2022/03/21 11:38:28;;;;;;;23.70;19.15;;;20.40;79.30;;;;;;5054375;27;95343;-66
2022/03/21 11:41:21;;;;;;;21.90;17.63;;;20.30;80.10;;;;;;5065078;27;95778;-70
2022/03/21 11:44:16;;;;;;;27.58;18.80;;;20.40;79.30;;;;;;5069007;27;95760;-70
2022/03/21 11:46:47;;;;;;;30.42;19.45;;;20.40;79.40;;;;;;5031638;27;96620;-71
2022/03/21 11:49:19;;;;;;;24.88;17.42;;;20.40;79.70;;;;;;5064869;27;95333;-70
2022/03/21 11:51:59;;;;;;;26.45;20.20;;;20.50;79.20;;;;;;5066727;27;95997;-64
2022/03/21 11:54:32;;;;;;;27.73;19.02;;;20.40;79.40;;;;;;5066320;27;96055;-70
2022/03/21 11:57:07;;;;;;;24.52;18.58;;;20.40;79.10;;;;;;5043623;27;98032;-66
2022/03/21 11:59:40;;;;;;;24.20;18.08;;;20.50;78.90;;;;;;5046485;27;96154;-66
2022/03/21 12:02:14;;;;;;;24.35;18.55;;;20.50;79.10;;;;;;5053557;27;95729;-66
2022/03/21 12:04:58;;;;;;;30.42;20.05;;;20.40;79.70;;;;;;5062621;27;95859;-66
2022/03/21 12:07:31;;;;;;;24.02;18.85;;;20.40;79.70;;;;;;5066905;27;96564;-68
2022/03/21 12:10:02;;;;;;;32.90;19.25;;;20.40;79.80;;;;;;5045243;27;96122;-65
2022/03/21 12:12:42;;;;;;;26.27;18.30;;;20.30;79.50;;;;;;5066505;27;96194;-67
2022/03/21 12:15:33;;;;;;;25.90;18.15;;;20.10;80.50;;;;;;5051752;27;96498;-64
2022/03/21 12:18:05;;;;;;;20.38;16.40;;;20.00;81.00;;;;;;5054433;27;102897;-66
2022/03/21 12:20:48;;;;;;;23.92;17.52;;;20.00;81.00;;;;;;5061362;27;96267;-66
2022/03/21 12:23:23;;;;;;;28.42;18.05;;;20.10;80.50;;;;;;5058180;27;95647;-67
2022/03/21 12:25:53;;;;;;;21.90;15.75;;;20.10;80.40;;;;;;5064678;27;96117;-67
2022/03/21 12:31:26;;;;;;;19.25;15.48;;;20.10;80.40;;;;;;5052806;27;95787;-68
2022/03/21 12:34:36;;;;;;;22.95;15.98;;;20.20;80.30;;;;;;5019332;27;97731;-66
2022/03/21 12:37:23;;;;;;;26.67;17.08;;;20.10;80.30;;;;;;5042995;27;96814;-66
2022/03/21 12:39:55;;;;;;;18.67;15.93;;;19.80;81.20;;;;;;5043378;27;96051;-67
2022/03/21 12:42:28;;;;;;;28.83;17.20;;;19.90;81.30;;;;;;5044286;27;95802;-67
2022/03/21 12:44:59;;;;;;;23.83;18.05;;;19.80;81.60;;;;;;5040172;27;95459;-67
2022/03/21 12:47:30;;;;;;;21.50;15.75;;;19.70;82.30;;;;;;5042964;27;95868;-67
2022/03/21 12:50:07;;;;;;;27.27;17.83;;;19.50;83.60;;;;;;5047574;27;95953;-63
2022/03/21 12:52:42;;;;;;;26.48;17.20;;;19.30;84.10;;;;;;5058868;27;95356;-69
2022/03/21 12:55:15;;;;;;;21.92;16.55;;;19.20;84.80;;;;;;5059517;27;95772;-63
2022/03/21 12:58:00;;;;;;;23.55;14.73;;;19.40;85.00;;;;;;5048470;27;95848;-64
2022/03/21 13:00:36;;;;;;;22.45;15.75;;;19.70;83.70;;;;;;5039397;27;96155;-64
2022/03/21 13:03:14;;;;;;;20.75;14.05;;;20.00;82.50;;;;;;5057496;27;102278;-64
2022/03/21 13:11:29;;;;;;;18.75;12.93;;;20.00;82.20;;;;;;5057367;27;95927;-60
2022/03/21 13:14:13;;;;;;;17.13;12.65;;;20.40;81.30;;;;;;5058241;27;95877;-62
2022/03/21 13:16:50;;;;;;;17.20;13.38;;;20.80;80.20;;;;;;5047878;27;95367;-62
2022/03/21 13:19:27;;;;;;;16.85;14.07;;;21.30;78.10;;;;;;5060242;27;95409;-62
2022/03/21 13:22:10;;;;;;;14.00;11.45;;;21.50;77.60;;;;;;5060919;27;96815;-62
2022/03/21 13:24:43;;;;;;;13.38;11.30;;;21.90;76.30;;;;;;5060789;27;95683;-63
2022/03/21 13:27:16;;;;;;;13.55;12.15;;;22.20;75.20;;;;;;5059516;27;95437;-62
2022/03/21 13:29:56;;;;;;;12.65;11.13;;;22.50;74.20;;;;;;5060939;27;95934;-62
2022/03/21 13:32:43;;;;;;;13.50;10.40;;;22.60;73.60;;;;;;5059703;27;95937;-63
2022/03/21 13:35:13;;;;;;;13.05;10.18;;;22.80;73.70;;;;;;5059717;27;95320;-62
2022/03/21 13:38:05;;;;;;;11.98;10.77;;;23.00;72.60;;;;;;5061262;27;95462;-60
2022/03/21 13:40:46;;;;;;;12.48;10.90;;;23.10;72.20;;;;;;5060215;27;95270;-62
2022/03/21 13:43:22;;;;;;;13.02;11.63;;;23.20;71.70;;;;;;5059412;27;95829;-61
2022/03/21 13:45:54;;;;;;;15.95;11.15;;;23.30;71.70;;;;;;5038616;27;96698;-61